South Franklin, Vermont
Current Conditions -  °F | °C
As of 9:15 PM on Saturday 25 Oct 2014 (Local Time) from KFSO Reporting Station
Overcast Overcast  
Wind Chill: 52°   Ceiling: 3400
Heat Index: 52°   Visibility: 10mi
Dew Point: 49°   Wind: 0mph
Humidity: 89%   Direction: NA
Pressure: 29.46"   Gusts: NA
Location:  44.8764°N, 72.758°W
Report Text: KFSO 260115Z AUTO 00000KT 10SM SCT030 OVC034 11/09 A2946 RMK AO2 T01100093
Loading
Personal Weather Stations






























Interactive Weather Map New forecast layout! Learn more

10-Day Weather Forecast

Advertisements
Track Severe Weather on mobile